Time;durP1;ratioP1;P1;durP2;ratioP2;P2;SDS_P1;SDS_P2;PMS_P1;PMS_P2;Temp;Humidity;BMP_temperature;BMP_pressure;BME280_temperature;BME280_humidity;BME280_pressure;Samples;Min_cycle;Max_cycle;Signal;HPM_P1;HPM_P2
2021/11/21 00:11:37;;;;;;;26.45;18.08;;;;;;;;;;4287788;33;20076;-71
2021/11/21 00:38:43;;;;;;;27.35;18.62;;;;;;;;;;4284179;33;20053;-70
2021/11/21 00:47:40;;;;;;;28.30;18.37;;;;;;;;;;4201599;34;20050;-70
2021/11/21 00:59:36;;;;;;;28.10;19.85;;;;;;;;;;4331225;33;20039;-70
2021/11/21 01:17:27;;;;;;;31.83;19.52;;;;;;;;;;4290449;33;20324;-71
2021/11/21 01:26:22;;;;;;;36.67;21.70;;;;;;;;;;4216482;34;20179;-70
2021/11/21 01:32:30;;;;;;;;;;;;;;;;;;;;;
2021/11/21 01:35:40;;;;;;;;;;;;;;;;;;;;;
2021/11/21 01:37:52;;;;;;;32.45;17.87;;;;;;;;;;4250695;33;20025;-71
2021/11/21 01:40:18;;;;;;;31.05;18.65;;;;;;;;;;4313812;33;20046;-70
2021/11/21 01:42:44;;;;;;;34.47;19.87;;;;;;;;;;4346669;33;20071;-71
2021/11/21 01:45:19;;;;;;;36.92;20.33;;;;;;;;;;4345672;33;20031;-71
2021/11/21 01:47:49;;;;;;;34.75;19.45;;;;;;;;;;4345887;33;20027;-70
2021/11/21 01:50:22;;;;;;;31.95;18.73;;;;;;;;;;4357420;33;20052;-70
2021/11/21 01:52:47;;;;;;;36.17;19.02;;;;;;;;;;4360595;33;20508;-70
2021/11/21 01:55:23;;;;;;;;;;;;;;;;;;;;;
2021/11/21 01:58:26;;;;;;;39.47;20.20;;;;;;;;;;4299571;33;19962;-71
2021/11/21 02:00:51;;;;;;;32.55;19.08;;;;;;;;;;4307180;33;20427;-71
2021/11/21 02:03:17;;;;;;;;;;;;;;;;;;4360752;33;20065;-70
2021/11/21 02:06:09;;;;;;;39.50;20.90;;;;;;;;;;4359969;33;20432;-70
2021/11/21 02:14:53;;;;;;;34.67;22.30;;;;;;;;;;4360185;33;20479;-70
2021/11/21 02:17:27;;;;;;;45.50;24.12;;;;;;;;;;4359169;32;20048;-72
2021/11/21 02:20:05;;;;;;;37.80;21.92;;;;;;;;;;4360670;33;20077;-71
2021/11/21 02:28:43;;;;;;;34.28;21.87;;;;;;;;;;4359669;33;20381;-70
2021/11/21 02:31:11;;;;;;;36.95;23.05;;;;;;;;;;4337950;33;20400;-71
2021/11/21 02:33:37;;;;;;;42.00;23.60;;;;;;;;;;4352585;33;20035;-70
2021/11/21 02:36:13;;;;;;;;;;;;;;;;;;;;;
2021/11/21 02:45:31;;;;;;;39.47;22.00;;;;;;;;;;4316749;33;20070;-70
2021/11/21 02:54:34;;;;;;;50.95;26.30;;;;;;;;;;4259112;33;20086;-72
2021/11/21 03:30:45;;;;;;;;;;;;;;;;;;;;;
2021/11/21 03:33:39;;;;;;;46.33;27.65;;;;;;;;;;4216211;34;20042;-71
2021/11/21 03:48:32;;;;;;;36.22;22.27;;;;;;;;;;4258487;33;20551;-71
2021/11/21 03:57:22;;;;;;;22.23;16.00;;;;;;;;;;4272065;33;20033;-72
2021/11/21 03:59:47;;;;;;;23.02;13.77;;;;;;;;;;4314823;33;20114;-72
2021/11/21 04:02:12;;;;;;;;;;;;;;;;;;4340694;33;20465;-72
2021/11/21 04:04:44;;;;;;;13.88;8.18;;;;;;;;;;4356864;33;19960;-72
2021/11/21 04:07:09;;;;;;;10.30;6.43;;;;;;;;;;4361820;32;20061;-72
2021/11/21 04:15:19;;;;;;;7.07;3.08;;;;;;;;;;4361602;32;20053;-71
2021/11/21 04:18:10;;;;;;;;;;;;;;;;;;;;;
2021/11/21 04:20:45;;;;;;;8.05;2.62;;;;;;;;;;4340480;33;20344;-71
2021/11/21 04:23:24;;;;;;;7.30;3.12;;;;;;;;;;4346916;33;20028;-71
2021/11/21 04:26:08;;;;;;;5.03;2.47;;;;;;;;;;4346302;33;20081;-71
2021/11/21 04:28:44;;;;;;;12.10;3.50;;;;;;;;;;4337612;33;20070;-71
2021/11/21 04:31:13;;;;;;;7.05;1.90;;;;;;;;;;4343727;33;20036;-71
2021/11/21 04:33:38;;;;;;;9.07;1.98;;;;;;;;;;4333100;33;20134;-72
2021/11/21 04:36:13;;;;;;;;;;;;;;;;;;4332071;33;20025;-71
2021/11/21 04:38:38;;;;;;;6.05;1.83;;;;;;;;;;4330589;33;19950;-71
2021/11/21 04:41:13;;;;;;;;;;;;;;;;;;4331470;33;20036;-72
2021/11/21 04:43:38;;;;;;;5.45;2.03;;;;;;;;;;4332467;33;19977;-72
2021/11/21 04:46:13;;;;;;;;;;;;;;;;;;;;;
2021/11/21 04:58:22;;;;;;;8.57;1.55;;;;;;;;;;4346361;33;20464;-72
2021/11/21 05:03:57;;;;;;;10.98;1.80;;;;;;;;;;4288313;33;20099;-72
2021/11/21 05:16:03;;;;;;;8.15;2.05;;;;;;;;;;4299960;33;20080;-71
2021/11/21 05:18:28;;;;;;;11.18;2.03;;;;;;;;;;4311573;33;20039;-72
2021/11/21 05:30:18;;;;;;;;;;;;;;;;;;;;;
2021/11/21 05:32:56;;;;;;;9.85;1.60;;;;;;;;;;4241841;33;19997;-72
2021/11/21 05:35:46;;;;;;;7.20;1.75;;;;;;;;;;4302886;33;20063;-72
2021/11/21 05:38:11;;;;;;;10.70;1.77;;;;;;;;;;4328435;33;20069;-72
2021/11/21 05:40:36;;;;;;;;;;;;;;;;;;4346089;33;20023;-72
2021/11/21 05:49:47;;;;;;;6.60;1.75;;;;;;;;;;4310696;33;20061;-71
2021/11/21 05:58:28;;;;;;;;;;;;;;;;;;;;;
2021/11/21 06:00:56;;;;;;;20.42;3.42;;;;;;;;;;4336168;33;19943;-72
2021/11/21 06:04:00;;;;;;;8.68;1.87;;;;;;;;;;4345205;33;20051;-72
2021/11/21 06:12:48;;;;;;;9.13;2.08;;;;;;;;;;4360161;32;20038;-72
2021/11/21 06:15:50;;;;;;;;;;;;;;;;;;;;;
2021/11/21 06:21:39;;;;;;;11.98;1.87;;;;;;;;;;4325196;33;20785;-73
2021/11/21 06:39:59;;;;;;;14.40;2.78;;;;;;;;;;4217466;34;20049;-71
2021/11/21 06:48:55;;;;;;;13.03;2.83;;;;;;;;;;4189355;34;20110;-72
2021/11/21 06:57:46;;;;;;;14.95;2.72;;;;;;;;;;4256343;33;20036;-72
2021/11/21 07:15:29;;;;;;;10.30;2.05;;;;;;;;;;4273114;33;20076;-71
2021/11/21 07:21:01;;;;;;;13.30;2.00;;;;;;;;;;4290076;33;20047;-71
2021/11/21 07:23:27;;;;;;;;;;;;;;;;;;4315382;33;20056;-72
2021/11/21 07:28:41;;;;;;;12.68;2.12;;;;;;;;;;4332726;33;20476;-71
2021/11/21 07:31:07;;;;;;;9.60;2.00;;;;;;;;;;4346176;33;20354;-71
2021/11/21 07:33:32;;;;;;;;;;;;;;;;;;4347400;33;20020;-71
2021/11/21 07:35:57;;;;;;;14.43;2.15;;;;;;;;;;4347337;33;19939;-72
2021/11/21 07:38:25;;;;;;;;;;;;;;;;;;4347167;33;20059;-72
2021/11/21 07:40:54;;;;;;;10.40;1.77;;;;;;;;;;4346405;33;19953;-71
2021/11/21 07:43:30;;;;;;;13.73;2.08;;;;;;;;;;4346731;33;20120;-71
2021/11/21 07:45:55;;;;;;;7.55;2.03;;;;;;;;;;4347263;33;20043;-70
2021/11/21 07:48:20;;;;;;;;;;;;;;;;;;4347077;33;20095;-71
2021/11/21 07:50:46;;;;;;;13.02;3.22;;;;;;;;;;4347314;33;19989;-71
2021/11/21 07:53:20;;;;;;;;;;;;;;;;;;4347538;33;20399;-71
2021/11/21 07:55:47;;;;;;;13.27;2.12;;;;;;;;;;4346385;33;20356;-71
2021/11/21 07:58:15;;;;;;;7.93;2.78;;;;;;;;;;4333203;33;20050;-71
2021/11/21 08:00:41;;;;;;;13.82;2.08;;;;;;;;;;4346841;33;20102;-71
2021/11/21 08:03:06;;;;;;;;;;;;;;;;;;4346679;33;20027;-71
2021/11/21 08:05:31;;;;;;;10.70;2.04;;;;;;;;;;4333566;33;19938;-71
2021/11/21 08:07:56;;;;;;;;;;;;;;;;;;4346447;33;20047;-71
2021/11/21 08:10:22;;;;;;;10.40;2.10;;;;;;;;;;4333959;33;20006;-71
2021/11/21 08:12:47;;;;;;;;;;;;;;;;;;4333023;33;20082;-71
2021/11/21 08:15:13;;;;;;;10.48;1.70;;;;;;;;;;4346528;33;19981;-70
2021/11/21 08:17:38;;;;;;;;;;;;;;;;;;4347030;33;20023;-71
2021/11/21 08:20:06;;;;;;;10.96;1.78;;;;;;;;;;4332821;33;19993;-70
2021/11/21 08:22:37;;;;;;;6.80;1.70;;;;;;;;;;4332258;33;20083;-71
2021/11/21 08:25:03;;;;;;;9.02;2.87;;;;;;;;;;4346602;33;20102;-71
2021/11/21 08:27:29;;;;;;;11.73;2.37;;;;;;;;;;4346284;33;20058;-71
2021/11/21 08:29:54;;;;;;;;;;;;;;;;;;4347250;33;20045;-70
2021/11/21 08:32:20;;;;;;;9.68;1.70;;;;;;;;;;4346018;33;19938;-70
2021/11/21 08:34:45;;;;;;;;;;;;;;;;;;4346410;33;20121;-70
2021/11/21 08:37:11;;;;;;;10.43;2.72;;;;;;;;;;4332833;33;19972;-70
2021/11/21 08:39:36;;;;;;;;;;;;;;;;;;4347352;33;20082;-71
2021/11/21 08:42:02;;;;;;;13.77;2.33;;;;;;;;;;4346493;33;19978;-71
2021/11/21 08:44:27;;;;;;;;;;;;;;;;;;4346711;33;20027;-70
2021/11/21 08:46:55;;;;;;;12.20;2.90;;;;;;;;;;4346108;33;19978;-71
2021/11/21 08:49:23;;;;;;;11.23;2.78;;;;;;;;;;4343842;33;20070;-70
2021/11/21 08:51:49;;;;;;;19.77;3.00;;;;;;;;;;4346544;33;20020;-71
2021/11/21 08:54:15;;;;;;;;;;;;;;;;;;4338399;33;20024;-71
2021/11/21 08:56:43;;;;;;;9.30;2.30;;;;;;;;;;4318331;33;19931;-71
2021/11/21 08:59:26;;;;;;;14.75;2.22;;;;;;;;;;4331489;33;20402;-70
2021/11/21 09:02:02;;;;;;;11.50;2.85;;;;;;;;;;4348208;33;20050;-71
2021/11/21 09:04:28;;;;;;;12.35;2.30;;;;;;;;;;4346069;32;20019;-71
2021/11/21 09:06:53;;;;;;;;;;;;;;;;;;4345842;33;20106;-71
2021/11/21 09:09:21;;;;;;;12.95;2.75;;;;;;;;;;4346213;33;19935;-70
2021/11/21 09:11:47;;;;;;;11.05;2.17;;;;;;;;;;4359472;32;20043;-71
2021/11/21 09:14:15;;;;;;;;;;;;;;;;;;4360846;32;20054;-71
2021/11/21 09:16:41;;;;;;;15.85;2.55;;;;;;;;;;4360584;32;19938;-70
2021/11/21 09:19:07;;;;;;;11.63;2.45;;;;;;;;;;4346850;33;20039;-71
2021/11/21 09:21:42;;;;;;;;;;;;;;;;;;4360426;32;20040;-70
2021/11/21 09:24:10;;;;;;;19.98;3.53;;;;;;;;;;4360051;33;19935;-70
2021/11/21 09:26:35;;;;;;;14.45;3.03;;;;;;;;;;4360117;32;20050;-70
2021/11/21 09:29:04;;;;;;;;;;;;;;;;;;4360884;33;20368;-70
2021/11/21 09:31:29;;;;;;;16.27;2.90;;;;;;;;;;4359802;32;19962;-70
2021/11/21 09:33:54;;;;;;;;;;;;;;;;;;4359521;32;20061;-71
2021/11/21 09:36:20;;;;;;;12.82;2.00;;;;;;;;;;4359319;33;20280;-70
2021/11/21 09:39:01;;;;;;;;;;;;;;;;;;;;;
2021/11/21 09:41:48;;;;;;;11.48;2.42;;;;;;;;;;4343495;33;19943;-70
2021/11/21 09:44:14;;;;;;;16.23;2.95;;;;;;;;;;4359096;33;20047;-70
2021/11/21 09:46:59;;;;;;;;;;;;;;;;;;;;;
2021/11/21 09:49:29;;;;;;;13.77;2.80;;;;;;;;;;4359384;32;20027;-70
2021/11/21 09:52:02;;;;;;;11.65;2.67;;;;;;;;;;4360428;33;20062;-70
2021/11/21 09:57:13;;;;;;;12.18;2.10;;;;;;;;;;4350296;33;20180;-70
2021/11/21 09:59:41;;;;;;;;;;;;;;;;;;4359922;33;20024;-71
2021/11/21 10:03:00;;;;;;;10.15;1.75;;;;;;;;;;4359146;33;19952;-71
2021/11/21 10:05:36;;;;;;;9.10;2.22;;;;;;;;;;4313008;33;20486;-72
2021/11/21 10:08:14;;;;;;;6.82;1.90;;;;;;;;;;4358155;33;20434;-70
2021/11/21 10:10:54;;;;;;;7.75;1.80;;;;;;;;;;4356546;33;20473;-71
2021/11/21 10:13:53;;;;;;;6.45;2.10;;;;;;;;;;4357582;33;20050;-70
2021/11/21 10:16:21;;;;;;;10.18;1.85;;;;;;;;;;4350170;32;20440;-70
2021/11/21 10:19:18;;;;;;;;;;;;;;;;;;;;;
2021/11/21 10:30:29;;;;;;;4.45;1.75;;;;;;;;;;4351641;33;20050;-71
2021/11/21 10:32:54;;;;;;;14.57;2.12;;;;;;;;;;4349137;33;20079;-71
2021/11/21 10:35:31;;;;;;;;;;;;;;;;;;;;;
2021/11/21 10:37:57;;;;;;;11.80;1.60;;;;;;;;;;4346439;33;19942;-71
2021/11/21 10:40:30;;;;;;;;;;;;;;;;;;4352582;33;20048;-71
2021/11/21 10:42:55;;;;;;;10.75;2.15;;;;;;;;;;4360177;33;19938;-70
2021/11/21 10:45:21;;;;;;;;;;;;;;;;;;4346593;33;20019;-72
2021/11/21 10:47:47;;;;;;;5.53;1.40;;;;;;;;;;4346440;33;19939;-71
2021/11/21 10:50:32;;;;;;;8.45;1.65;;;;;;;;;;4343731;33;20418;-70
2021/11/21 10:52:59;;;;;;;4.00;1.10;;;;;;;;;;4341035;33;20148;-70
2021/11/21 10:55:24;;;;;;;4.53;1.10;;;;;;;;;;4344536;33;20081;-70
2021/11/21 10:57:49;;;;;;;;;;;;;;;;;;4349730;33;20023;-70
2021/11/21 11:00:16;;;;;;;4.85;1.00;;;;;;;;;;4334652;33;19938;-70
2021/11/21 11:02:42;;;;;;;4.95;2.05;;;;;;;;;;4354607;33;20042;-70
2021/11/21 11:05:07;;;;;;;;;;;;;;;;;;4363198;32;20097;-70
2021/11/21 11:07:44;;;;;;;10.02;1.95;;;;;;;;;;4362055;32;19992;-70
2021/11/21 11:10:11;;;;;;;3.53;1.15;;;;;;;;;;4362976;32;20019;-70
2021/11/21 11:12:37;;;;;;;6.82;1.80;;;;;;;;;;4352031;32;20023;-70
2021/11/21 11:15:02;;;;;;;;;;;;;;;;;;4347326;33;20390;-70
2021/11/21 11:17:28;;;;;;;9.02;1.95;;;;;;;;;;4347675;33;19935;-70
2021/11/21 11:19:53;;;;;;;;;;;;;;;;;;4347613;33;20152;-70
2021/11/21 11:22:18;;;;;;;7.76;2.08;;;;;;;;;;4333814;33;19939;-70
2021/11/21 11:24:43;;;;;;;;;;;;;;;;;;4348840;33;20418;-70
2021/11/21 11:27:12;;;;;;;10.57;2.00;;;;;;;;;;4362437;32;19934;-70
2021/11/21 11:29:42;;;;;;;11.80;2.28;;;;;;;;;;4362078;32;20081;-71
2021/11/21 11:32:25;;;;;;;8.82;1.58;;;;;;;;;;4362066;32;20065;-70
2021/11/21 11:34:51;;;;;;;6.18;2.00;;;;;;;;;;4348655;33;20024;-70
2021/11/21 11:37:36;;;;;;;6.57;1.58;;;;;;;;;;4362370;32;20019;-71
2021/11/21 11:40:01;;;;;;;10.32;2.95;;;;;;;;;;4360863;33;20319;-71
2021/11/21 11:42:35;;;;;;;;;;;;;;;;;;4362142;32;20106;-71
2021/11/21 11:45:21;;;;;;;8.25;1.80;;;;;;;;;;4370233;32;20296;-70
2021/11/21 11:48:09;;;;;;;10.20;2.22;;;;;;;;;;4288503;33;20064;-71
2021/11/21 11:50:49;;;;;;;12.32;2.47;;;;;;;;;;4354587;33;20057;-70
2021/11/21 11:53:34;;;;;;;15.52;2.58;;;;;;;;;;4361142;32;20053;-70
2021/11/21 11:56:21;;;;;;;11.88;2.15;;;;;;;;;;4361094;32;20020;-70
2021/11/21 11:58:50;;;;;;;31.37;12.50;;;;;;;;;;4361980;32;20378;-70
2021/11/21 12:01:31;;;;;;;12.23;2.33;;;;;;;;;;4347593;33;20518;-70
2021/11/21 12:03:57;;;;;;;9.25;2.35;;;;;;;;;;4361161;32;20022;-70
2021/11/21 12:06:34;;;;;;;15.32;2.45;;;;;;;;;;4361150;32;20381;-71
2021/11/21 12:09:18;;;;;;;6.53;1.80;;;;;;;;;;4361648;32;20066;-69
2021/11/21 12:11:59;;;;;;;5.07;1.00;;;;;;;;;;4360966;32;20142;-71
2021/11/21 12:14:28;;;;;;;4.70;1.15;;;;;;;;;;4346168;33;20381;-71
2021/11/21 12:16:57;;;;;;;6.10;1.90;;;;;;;;;;4359213;33;20055;-72
2021/11/21 12:19:43;;;;;;;16.73;1.75;;;;;;;;;;4361190;32;20069;-71
2021/11/21 12:22:24;;;;;;;7.28;1.65;;;;;;;;;;4361383;32;20039;-71
2021/11/21 12:24:52;;;;;;;5.70;1.50;;;;;;;;;;4361233;32;20061;-71
2021/11/21 12:30:25;;;;;;;6.35;1.60;;;;;;;;;;4360921;32;20046;-70
2021/11/21 12:32:56;;;;;;;11.23;1.70;;;;;;;;;;4360381;32;20040;-70
2021/11/21 12:35:54;;;;;;;5.97;2.03;;;;;;;;;;4351644;33;20052;-71
2021/11/21 12:38:20;;;;;;;11.35;2.33;;;;;;;;;;4334930;33;20464;-71
2021/11/21 12:40:46;;;;;;;;;;;;;;;;;;4361999;32;20062;-71
2021/11/21 12:46:01;;;;;;;8.85;2.72;;;;;;;;;;4352810;33;20024;-71
2021/11/21 12:48:26;;;;;;;;;;;;;;;;;;4360980;32;20026;-71
2021/11/21 12:51:11;;;;;;;9.23;2.72;;;;;;;;;;4360009;32;19939;-71
2021/11/21 12:53:46;;;;;;;11.50;2.80;;;;;;;;;;4359199;33;20105;-71
2021/11/21 12:56:24;;;;;;;13.52;4.93;;;;;;;;;;4360963;32;20522;-72
2021/11/21 12:58:49;;;;;;;9.85;2.40;;;;;;;;;;4372090;32;20090;-71
2021/11/21 13:01:14;;;;;;;;;;;;;;;;;;4361268;32;20092;-72
2021/11/21 13:04:18;;;;;;;;;;;;;;;;;;;;;
2021/11/21 13:06:45;;;;;;;9.38;2.40;;;;;;;;;;4358116;33;20058;-71
2021/11/21 13:09:13;;;;;;;;;;;;;;;;;;4346598;33;20033;-70
2021/11/21 13:12:15;;;;;;;7.15;1.95;;;;;;;;;;4358292;32;19996;-70
2021/11/21 13:15:06;;;;;;;15.43;2.40;;;;;;;;;;4359103;32;20064;-70
2021/11/21 13:17:31;;;;;;;6.43;1.73;;;;;;;;;;4360755;32;20019;-70
2021/11/21 13:23:19;;;;;;;6.62;1.92;;;;;;;;;;4360607;32;19969;-72
2021/11/21 13:25:46;;;;;;;54.17;4.47;;;;;;;;;;4346811;33;20165;-70
2021/11/21 13:31:36;;;;;;;13.38;2.17;;;;;;;;;;4317162;33;20070;-70
2021/11/21 13:34:17;;;;;;;8.43;2.08;;;;;;;;;;4328351;33;20028;-70
2021/11/21 13:36:51;;;;;;;6.45;1.75;;;;;;;;;;4342103;32;20457;-70
2021/11/21 13:42:25;;;;;;;4.70;1.33;;;;;;;;;;4336844;33;20046;-70
2021/11/21 13:44:51;;;;;;;;;;;;;;;;;;4359925;32;20092;-70
2021/11/21 13:47:50;;;;;;;9.02;1.60;;;;;;;;;;4359290;32;19946;-70
2021/11/21 13:50:25;;;;;;;8.40;1.90;;;;;;;;;;4358027;32;20024;-70
2021/11/21 13:55:54;;;;;;;7.97;2.42;;;;;;;;;;4359504;33;20046;-70
2021/11/21 13:58:25;;;;;;;7.05;2.45;;;;;;;;;;4345841;33;20019;-69
2021/11/21 14:01:04;;;;;;;9.32;2.47;;;;;;;;;;4360261;33;20020;-71
2021/11/21 14:03:38;;;;;;;12.55;2.72;;;;;;;;;;4348898;33;20064;-71
2021/11/21 14:06:31;;;;;;;9.93;2.28;;;;;;;;;;4361099;33;20117;-70
2021/11/21 14:09:02;;;;;;;10.10;3.10;;;;;;;;;;4360474;33;20064;-70
2021/11/21 14:11:32;;;;;;;9.68;2.40;;;;;;;;;;4360381;33;20094;-70
2021/11/21 14:14:07;;;;;;;7.87;2.10;;;;;;;;;;4360373;33;20024;-71
2021/11/21 14:17:00;;;;;;;7.83;2.70;;;;;;;;;;4360223;33;20474;-71
2021/11/21 14:19:25;;;;;;;8.85;2.28;;;;;;;;;;4357503;33;20132;-70
2021/11/21 14:21:50;;;;;;;;;;;;;;;;;;4360109;33;20024;-70
2021/11/21 14:24:16;;;;;;;10.60;3.17;;;;;;;;;;4360577;33;19943;-70
2021/11/21 14:26:41;;;;;;;;;;;;;;;;;;4375004;32;20535;-70
2021/11/21 14:29:07;;;;;;;8.38;1.90;;;;;;;;;;4371461;32;19945;-70
2021/11/21 14:31:32;;;;;;;;;;;;;;;;;;4359985;33;20119;-70
2021/11/21 14:34:08;;;;;;;11.63;2.47;;;;;;;;;;4359877;32;20001;-70
2021/11/21 14:36:33;;;;;;;;;;;;;;;;;;4363056;33;20132;-70
2021/11/21 14:39:08;;;;;;;11.40;2.22;;;;;;;;;;4362047;32;19939;-70
2021/11/21 14:41:35;;;;;;;12.85;2.62;;;;;;;;;;4362918;32;20717;-70
2021/11/21 14:44:05;;;;;;;9.55;2.37;;;;;;;;;;4362692;32;20036;-70
2021/11/21 14:46:38;;;;;;;8.30;2.42;;;;;;;;;;4361785;32;20027;-70
2021/11/21 14:49:06;;;;;;;9.20;2.72;;;;;;;;;;4364570;32;20112;-70
2021/11/21 14:51:42;;;;;;;9.40;2.28;;;;;;;;;;4378278;32;20019;-70
2021/11/21 14:54:19;;;;;;;10.80;3.10;;;;;;;;;;4377734;32;20368;-70
2021/11/21 14:57:02;;;;;;;;;;;;;;;;;;;;;
2021/11/21 14:59:31;;;;;;;12.77;2.62;;;;;;;;;;4374378;32;20460;-70
2021/11/21 15:01:56;;;;;;;10.52;2.67;;;;;;;;;;4354793;32;20096;-71
2021/11/21 15:04:21;;;;;;;;;;;;;;;;;;4348402;33;20031;-71
2021/11/21 15:06:55;;;;;;;22.85;2.70;;;;;;;;;;4361340;32;19938;-71
2021/11/21 15:09:20;;;;;;;9.73;2.55;;;;;;;;;;4363037;32;20031;-72
2021/11/21 15:11:45;;;;;;;;;;;;;;;;;;4348668;33;20023;-71
2021/11/21 15:14:30;;;;;;;;;;;;;;;;;;;;;
2021/11/21 15:17:06;;;;;;;;;;;;;;;;;;;;;
2021/11/21 15:19:32;;;;;;;15.90;4.28;;;;;;;;;;4359307;33;20039;-70
2021/11/21 15:21:57;;;;;;;;;;;;;;;;;;4362725;32;20054;-70
2021/11/21 15:24:22;;;;;;;12.10;3.05;;;;;;;;;;4361808;32;19958;-70
2021/11/21 15:26:49;;;;;;;;;;;;;;;;;;4355990;33;20365;-70
2021/11/21 15:29:17;;;;;;;13.82;2.78;;;;;;;;;;4361507;32;20313;-70
2021/11/21 15:31:45;;;;;;;8.88;2.15;;;;;;;;;;4361706;32;20032;-71
2021/11/21 15:34:14;;;;;;;8.10;2.83;;;;;;;;;;4361223;32;20074;-70
2021/11/21 15:36:42;;;;;;;11.12;2.40;;;;;;;;;;4362808;32;20170;-70
2021/11/21 15:39:11;;;;;;;12.82;2.75;;;;;;;;;;4361640;32;20024;-69
2021/11/21 15:41:36;;;;;;;9.48;2.45;;;;;;;;;;4362261;32;20080;-70
2021/11/21 15:44:04;;;;;;;;;;;;;;;;;;4363310;32;20031;-70
2021/11/21 15:46:29;;;;;;;9.10;2.15;;;;;;;;;;4361319;32;19977;-70
2021/11/21 15:48:55;;;;;;;;;;;;;;;;;;4361966;33;20027;-69
2021/11/21 15:51:27;;;;;;;13.15;2.75;;;;;;;;;;4360852;32;19942;-70
2021/11/21 15:53:53;;;;;;;13.88;2.72;;;;;;;;;;4361546;32;20089;-71
2021/11/21 15:56:21;;;;;;;;;;;;;;;;;;4362126;32;20035;-70
2021/11/21 15:58:46;;;;;;;16.67;2.90;;;;;;;;;;4361798;33;19984;-70
2021/11/21 16:01:11;;;;;;;;;;;;;;;;;;4360822;32;20035;-70
2021/11/21 16:03:37;;;;;;;16.77;2.55;;;;;;;;;;4361776;32;19969;-70
2021/11/21 16:06:02;;;;;;;;;;;;;;;;;;4356565;32;20157;-70
2021/11/21 16:08:28;;;;;;;25.55;2.62;;;;;;;;;;4343963;32;20386;-70
2021/11/21 16:10:53;;;;;;;;;;;;;;;;;;4361912;32;20190;-70
2021/11/21 16:13:27;;;;;;;14.50;2.58;;;;;;;;;;4362007;32;19957;-70
2021/11/21 16:15:59;;;;;;;7.50;1.95;;;;;;;;;;4360506;33;20412;-71
2021/11/21 16:18:25;;;;;;;9.93;2.92;;;;;;;;;;4361236;32;20134;-71
2021/11/21 16:20:50;;;;;;;;;;;;;;;;;;4361098;32;20057;-72
2021/11/21 16:23:15;;;;;;;7.97;2.62;;;;;;;;;;4361981;32;19981;-70
2021/11/21 16:25:40;;;;;;;;;;;;;;;;;;4360411;32;20505;-70
2021/11/21 16:28:06;;;;;;;10.63;3.47;;;;;;;;;;4361364;32;20218;-70
2021/11/21 16:30:31;;;;;;;;;;;;;;;;;;4361884;32;20097;-70
2021/11/21 16:33:09;;;;;;;11.20;2.85;;;;;;;;;;4361502;32;20328;-70
2021/11/21 16:35:37;;;;;;;9.88;2.60;;;;;;;;;;4356807;32;20098;-70
2021/11/21 16:38:26;;;;;;;11.52;2.90;;;;;;;;;;4360183;32;20031;-70
2021/11/21 16:40:55;;;;;;;13.05;3.42;;;;;;;;;;4351283;33;20441;-70
2021/11/21 16:43:20;;;;;;;11.27;3.20;;;;;;;;;;4361082;32;20062;-70
2021/11/21 16:46:30;;;;;;;;;;;;;;;;;;4361551;32;20361;-69
2021/11/21 16:49:05;;;;;;;6.43;2.42;;;;;;;;;;4353695;32;19935;-70
2021/11/21 16:51:42;;;;;;;13.75;3.05;;;;;;;;;;4354496;33;20069;-70
2021/11/21 16:54:17;;;;;;;9.40;3.00;;;;;;;;;;4360331;32;20039;-71
2021/11/21 16:56:42;;;;;;;12.10;3.22;;;;;;;;;;4361161;32;20074;-70
2021/11/21 16:59:19;;;;;;;;;;;;;;;;;;4360749;33;20353;-70
2021/11/21 17:01:45;;;;;;;13.18;2.78;;;;;;;;;;4360366;32;20415;-70
2021/11/21 17:04:19;;;;;;;;;;;;;;;;;;4344905;33;20031;-70
2021/11/21 17:06:45;;;;;;;15.65;2.97;;;;;;;;;;4360884;32;19993;-70
2021/11/21 17:09:10;;;;;;;9.32;2.53;;;;;;;;;;4360240;33;20057;-70
2021/11/21 17:11:36;;;;;;;;;;;;;;;;;;4362041;32;20036;-70
2021/11/21 17:14:01;;;;;;;9.65;2.85;;;;;;;;;;4358683;32;19938;-70
2021/11/21 17:16:27;;;;;;;;;;;;;;;;;;4361705;32;20039;-70
2021/11/21 17:18:52;;;;;;;9.63;3.30;;;;;;;;;;4360130;32;20304;-70
2021/11/21 17:21:18;;;;;;;;;;;;;;;;;;4361311;32;20066;-70
2021/11/21 17:23:44;;;;;;;8.70;3.17;;;;;;;;;;4361021;32;19993;-70
2021/11/21 17:26:09;;;;;;;;;;;;;;;;;;4360674;32;20046;-70
2021/11/21 17:28:34;;;;;;;15.95;4.05;;;;;;;;;;4358759;32;20426;-71
2021/11/21 17:30:59;;;;;;;;;;;;;;;;;;4360154;32;20463;-70
2021/11/21 17:33:26;;;;;;;13.57;3.35;;;;;;;;;;4359469;32;20036;-71
2021/11/21 17:35:52;;;;;;;12.02;3.33;;;;;;;;;;4359608;32;20067;-70
2021/11/21 17:38:17;;;;;;;;;;;;;;;;;;4346531;33;20062;-71
2021/11/21 17:40:42;;;;;;;15.85;4.05;;;;;;;;;;4359545;33;19957;-70
2021/11/21 17:43:08;;;;;;;;;;;;;;;;;;4348314;32;20171;-70
2021/11/21 17:45:35;;;;;;;12.77;4.72;;;;;;;;;;4354052;32;19988;-70
2021/11/21 17:48:01;;;;;;;16.27;5.20;;;;;;;;;;4359845;32;20040;-70
2021/11/21 17:50:35;;;;;;;;;;;;;;;;;;4341257;33;20089;-71
2021/11/21 17:53:13;;;;;;;19.15;5.72;;;;;;;;;;4352404;33;20332;-70
2021/11/21 17:55:43;;;;;;;14.80;3.55;;;;;;;;;;4359266;33;20055;-70
2021/11/21 17:58:19;;;;;;;14.90;3.97;;;;;;;;;;4360170;33;20074;-70
2021/11/21 18:00:45;;;;;;;10.05;3.05;;;;;;;;;;4346017;33;20090;-70
2021/11/21 18:03:11;;;;;;;19.65;4.12;;;;;;;;;;4359862;33;20039;-70
2021/11/21 18:05:36;;;;;;;;;;;;;;;;;;4360617;33;20155;-70
2021/11/21 18:08:02;;;;;;;15.48;3.78;;;;;;;;;;4360835;33;19980;-70
2021/11/21 18:10:27;;;;;;;;;;;;;;;;;;4362841;32;20061;-70
2021/11/21 18:12:55;;;;;;;20.48;4.22;;;;;;;;;;4362748;32;19996;-69
2021/11/21 18:15:20;;;;;;;16.92;3.78;;;;;;;;;;4361967;33;20095;-70
2021/11/21 18:18:16;;;;;;;;;;;;;;;;;;;;;
2021/11/21 18:20:33;;;;;;;16.45;3.65;;;;;;;;;;4347419;33;20288;-70
2021/11/21 18:22:59;;;;;;;19.52;4.55;;;;;;;;;;4334753;33;20057;-70
2021/11/21 18:25:24;;;;;;;;;;;;;;;;;;4349284;33;20110;-70
2021/11/21 18:27:49;;;;;;;9.75;3.67;;;;;;;;;;4352331;33;19943;-70
2021/11/21 18:30:14;;;;;;;;;;;;;;;;;;4361133;32;20059;-70
2021/11/21 18:32:42;;;;;;;15.74;3.56;;;;;;;;;;4360142;33;19958;-70
2021/11/21 18:35:08;;;;;;;17.92;5.75;;;;;;;;;;4361693;33;20047;-69
2021/11/21 18:37:33;;;;;;;14.30;4.50;;;;;;;;;;4348977;33;20381;-70
2021/11/21 18:39:58;;;;;;;;;;;;;;;;;;4363135;32;20031;-69
2021/11/21 18:42:24;;;;;;;16.62;5.07;;;;;;;;;;4362717;32;19977;-71
2021/11/21 18:44:50;;;;;;;;;;;;;;;;;;4363238;32;20132;-70
2021/11/21 18:47:17;;;;;;;11.77;4.03;;;;;;;;;;4348747;33;19930;-70
2021/11/21 18:49:46;;;;;;;23.95;5.30;;;;;;;;;;4363031;32;20063;-69
2021/11/21 18:52:14;;;;;;;20.33;6.03;;;;;;;;;;4362345;32;20073;-69
2021/11/21 18:54:49;;;;;;;20.92;4.20;;;;;;;;;;4362381;32;20054;-70
2021/11/21 18:57:24;;;;;;;20.92;5.18;;;;;;;;;;4349192;32;20072;-70
2021/11/21 18:59:55;;;;;;;14.57;5.05;;;;;;;;;;4348265;33;20016;-69
2021/11/21 19:02:50;;;;;;;16.33;4.97;;;;;;;;;;4348576;33;20089;-70
2021/11/21 19:05:15;;;;;;;18.35;4.32;;;;;;;;;;4348431;33;20024;-70
2021/11/21 19:07:41;;;;;;;;;;;;;;;;;;4347773;33;20066;-69
2021/11/21 19:10:07;;;;;;;19.17;5.03;;;;;;;;;;4340172;33;19965;-70
2021/11/21 19:12:32;;;;;;;;;;;;;;;;;;4364502;32;20039;-70
2021/11/21 19:17:43;;;;;;;15.73;4.60;;;;;;;;;;4362678;32;20050;-69
2021/11/21 19:20:19;;;;;;;21.08;4.60;;;;;;;;;;4361980;32;20429;-70
2021/11/21 19:25:50;;;;;;;;;;;;;;;;;;;;;
2021/11/21 19:28:15;;;;;;;17.87;4.62;;;;;;;;;;4359553;33;20039;-70
2021/11/21 19:30:41;;;;;;;;;;;;;;;;;;4362337;33;20066;-69
2021/11/21 19:33:06;;;;;;;19.37;7.40;;;;;;;;;;4363273;32;19973;-70
2021/11/21 19:35:31;;;;;;;;;;;;;;;;;;4362025;33;20154;-70
2021/11/21 19:37:57;;;;;;;15.10;3.65;;;;;;;;;;4363256;32;19977;-70
2021/11/21 19:40:22;;;;;;;;;;;;;;;;;;4363365;32;20077;-70
2021/11/21 19:42:48;;;;;;;23.85;5.62;;;;;;;;;;4360501;32;19972;-70
2021/11/21 19:45:14;;;;;;;25.95;5.47;;;;;;;;;;4362397;32;20414;-71
2021/11/21 19:47:39;;;;;;;;;;;;;;;;;;4362356;32;20041;-71
2021/11/21 19:50:06;;;;;;;25.50;5.20;;;;;;;;;;4361367;32;19952;-71
2021/11/21 19:52:31;;;;;;;;;;;;;;;;;;4361503;32;20058;-71
2021/11/21 19:54:56;;;;;;;13.98;3.70;;;;;;;;;;4348683;33;19938;-71
2021/11/21 19:57:21;;;;;;;;;;;;;;;;;;4362304;32;20120;-71
2021/11/21 19:59:47;;;;;;;12.15;3.62;;;;;;;;;;4348298;33;19992;-72
2021/11/21 20:02:12;;;;;;;;;;;;;;;;;;4361454;33;20367;-71
2021/11/21 20:04:37;;;;;;;14.07;4.15;;;;;;;;;;4362539;32;20026;-72
2021/11/21 20:07:02;;;;;;;;;;;;;;;;;;4361720;32;20418;-71
2021/11/21 20:09:27;;;;;;;16.72;3.86;;;;;;;;;;4361590;32;19953;-70
2021/11/21 20:11:53;;;;;;;;;;;;;;;;;;4362504;32;20027;-70
2021/11/21 20:14:18;;;;;;;17.52;4.62;;;;;;;;;;4361701;33;19938;-70
2021/11/21 20:16:43;;;;;;;;;;;;;;;;;;4362690;32;20051;-70
2021/11/21 20:19:09;;;;;;;16.58;4.60;;;;;;;;;;4361339;33;19993;-70
2021/11/21 20:21:34;;;;;;;;;;;;;;;;;;4361024;32;20174;-70
2021/11/21 20:24:02;;;;;;;14.63;4.50;;;;;;;;;;4361102;32;19979;-70
2021/11/21 20:26:28;;;;;;;16.10;5.53;;;;;;;;;;4361215;32;20097;-70
2021/11/21 20:28:53;;;;;;;;;;;;;;;;;;4361733;32;20031;-70
2021/11/21 20:36:55;;;;;;;16.10;4.35;;;;;;;;;;4362533;32;20065;-69
2021/11/21 20:39:21;;;;;;;21.48;4.28;;;;;;;;;;4361491;32;20019;-70
2021/11/21 20:41:46;;;;;;;;;;;;;;;;;;4362024;32;20089;-70
2021/11/21 20:44:12;;;;;;;17.12;3.90;;;;;;;;;;4360741;33;19949;-71
2021/11/21 20:46:37;;;;;;;;;;;;;;;;;;4361500;32;20049;-71